createdAt,value
2018-12-14T00:01:41.641Z,103162.69
2018-12-14T00:04:07.796Z,103161.16
2018-12-14T00:06:33.984Z,103160.70
2018-12-14T00:09:00.116Z,103150.69
2018-12-14T00:11:26.299Z,103149.97
2018-12-14T00:13:52.471Z,103157.95
2018-12-14T00:16:18.616Z,103129.04
2018-12-14T00:18:44.757Z,103148.11
2018-12-14T00:21:10.972Z,103149.67
2018-12-14T00:23:37.122Z,103147.17
2018-12-14T00:26:03.298Z,103153.81
2018-12-14T00:28:29.463Z,103145.30
2018-12-14T00:30:56.199Z,103139.63
2018-12-14T00:33:22.349Z,103138.62
2018-12-14T00:35:48.727Z,103139.09
2018-12-14T00:38:14.872Z,103142.81
2018-12-14T00:40:41.025Z,103139.41
2018-12-14T00:43:07.197Z,103140.31
2018-12-14T00:45:33.367Z,103127.32
2018-12-14T00:47:59.521Z,103131.77
2018-12-14T00:50:25.650Z,103135.28
2018-12-14T00:52:51.795Z,103132.36
2018-12-14T00:55:17.935Z,103132.84
2018-12-14T00:57:44.076Z,103129.80
2018-12-14T01:00:10.719Z,103123.33
2018-12-14T01:02:37.032Z,103128.91
2018-12-14T01:05:04.728Z,103129.19
2018-12-14T01:07:30.858Z,103135.02
2018-12-14T01:09:56.997Z,103131.45
2018-12-14T01:12:23.172Z,103129.64
2018-12-14T01:14:49.348Z,103134.74
2018-12-14T01:17:15.579Z,103126.69
2018-12-14T01:19:41.783Z,103137.50
2018-12-14T01:22:07.951Z,103130.98
2018-12-14T01:24:34.110Z,103126.94
2018-12-14T01:27:01.059Z,103133.05
2018-12-14T01:29:27.235Z,103141.00
2018-12-14T01:31:53.396Z,103138.06
2018-12-14T01:34:19.578Z,103138.02
2018-12-14T01:36:45.726Z,103134.34
2018-12-14T01:39:11.910Z,103143.53
2018-12-14T01:41:38.056Z,103134.98
2018-12-14T01:44:04.237Z,103135.91
2018-12-14T01:46:30.387Z,103136.53
2018-12-14T01:48:56.540Z,103137.16
2018-12-14T01:51:22.678Z,103134.45
2018-12-14T01:53:48.854Z,103141.09
2018-12-14T01:56:15.026Z,103142.16
2018-12-14T01:58:41.301Z,103141.73
2018-12-14T02:01:07.460Z,103135.19
2018-12-14T02:03:33.604Z,103133.06
2018-12-14T02:05:59.747Z,103125.33
2018-12-14T02:08:25.915Z,103119.62
2018-12-14T02:10:52.090Z,103129.48
2018-12-14T02:13:18.254Z,103124.39
2018-12-14T02:15:44.539Z,103122.48
2018-12-14T02:18:10.707Z,103124.30
2018-12-14T02:20:36.892Z,103127.80
2018-12-14T02:23:03.080Z,103122.45
2018-12-14T02:25:29.249Z,103124.47
2018-12-14T02:27:55.383Z,103109.92
2018-12-14T02:30:35.726Z,103096.70
2018-12-14T02:33:01.895Z,103102.17
2018-12-14T02:35:28.048Z,103098.23
2018-12-14T02:37:54.456Z,103103.54
2018-12-14T02:40:20.624Z,103101.63
2018-12-14T02:42:46.778Z,102563.80
2018-12-14T02:45:12.971Z,103093.61
2018-12-14T02:47:39.120Z,103083.94
2018-12-14T02:50:05.500Z,103080.87
2018-12-14T02:52:31.655Z,103094.14
2018-12-14T02:54:58.682Z,103093.77
2018-12-14T02:57:24.830Z,103086.02
2018-12-14T02:59:50.979Z,103077.13
2018-12-14T03:02:17.178Z,103082.52
2018-12-14T03:04:43.357Z,103086.38
2018-12-14T03:07:09.511Z,103077.11
2018-12-14T03:09:35.641Z,103072.40
2018-12-14T03:12:01.800Z,103073.80
2018-12-14T03:14:27.942Z,103055.99
2018-12-14T03:16:54.500Z,103073.09
2018-12-14T03:19:20.696Z,103062.09
2018-12-14T03:21:46.872Z,103066.08
2018-12-14T03:24:13.027Z,103062.44
2018-12-14T03:26:39.184Z,103061.88
2018-12-14T03:29:05.365Z,103052.24
2018-12-14T03:31:31.537Z,103047.34
2018-12-14T03:33:57.691Z,103040.70
2018-12-14T03:36:23.875Z,103030.35
2018-12-14T03:38:50.026Z,103042.20
2018-12-14T03:41:16.169Z,103035.05
2018-12-14T03:43:42.317Z,103032.97
2018-12-14T03:46:08.458Z,103032.15
2018-12-14T03:48:34.744Z,103023.89
2018-12-14T03:51:00.863Z,103025.80
2018-12-14T03:53:27.032Z,103021.11
2018-12-14T03:55:53.179Z,103027.47
2018-12-14T03:58:19.476Z,103032.81
2018-12-14T04:00:45.871Z,103022.98
2018-12-14T04:03:12.081Z,103024.08
2018-12-14T04:05:38.476Z,103035.70
2018-12-14T04:08:04.620Z,103027.95
2018-12-14T04:10:30.765Z,103028.17
2018-12-14T04:12:56.896Z,103022.28
2018-12-14T04:15:23.065Z,103023.56
2018-12-14T04:17:49.223Z,103021.64
2018-12-14T04:20:15.363Z,103026.77
2018-12-14T04:22:41.559Z,103028.47
2018-12-14T04:25:07.705Z,103026.38
2018-12-14T04:27:33.843Z,103024.52
2018-12-14T04:29:59.976Z,103024.70
2018-12-14T04:32:26.141Z,103028.80
2018-12-14T04:34:52.288Z,103016.86
2018-12-14T04:37:18.472Z,103020.37
2018-12-14T04:39:44.627Z,103016.78
2018-12-14T04:42:10.752Z,103017.02
2018-12-14T04:44:37.763Z,103016.11
2018-12-14T04:47:04.167Z,103012.52
2018-12-14T04:49:30.617Z,103013.80
2018-12-14T04:51:56.765Z,103022.92
2018-12-14T04:54:23.118Z,103025.58
2018-12-14T04:56:49.260Z,103020.15
2018-12-14T04:59:15.383Z,103018.16
2018-12-14T05:01:41.512Z,103018.05
2018-12-14T05:04:07.664Z,103018.33
2018-12-14T05:06:33.850Z,103007.13
2018-12-14T05:08:59.995Z,103010.68
2018-12-14T05:11:26.135Z,103010.77
2018-12-14T05:13:52.299Z,103008.77
2018-12-14T05:16:18.406Z,103005.77
2018-12-14T05:18:44.535Z,103019.87
2018-12-14T05:21:10.679Z,103022.45
2018-12-14T05:23:36.795Z,103027.04
2018-12-14T05:26:02.937Z,103035.88
2018-12-14T05:28:29.056Z,103039.34
2018-12-14T05:30:55.214Z,103039.95
2018-12-14T05:33:21.356Z,103042.14
2018-12-14T05:35:47.514Z,103042.39
2018-12-14T05:38:13.626Z,103043.29
2018-12-14T05:40:39.775Z,103042.73
2018-12-14T05:43:05.892Z,103044.33
2018-12-14T05:45:32.035Z,103045.88
2018-12-14T05:47:58.170Z,103042.42
2018-12-14T05:50:24.326Z,103026.31
2018-12-14T05:52:50.478Z,103041.06
2018-12-14T05:55:16.620Z,103046.22
2018-12-14T05:57:42.741Z,103045.84
2018-12-14T06:00:11.079Z,103042.73
2018-12-14T06:02:37.200Z,103043.00
2018-12-14T06:05:04.410Z,103042.30
2018-12-14T06:07:30.551Z,103049.75
2018-12-14T06:09:56.700Z,103051.55
2018-12-14T06:12:23.004Z,103052.33
2018-12-14T06:14:49.134Z,103047.17
2018-12-14T06:17:15.278Z,103050.48
2018-12-14T06:19:41.415Z,103044.35
2018-12-14T06:22:07.547Z,103041.07
2018-12-14T06:24:33.674Z,103031.97
2018-12-14T06:26:59.821Z,103030.26
2018-12-14T06:29:25.944Z,103029.58
2018-12-14T06:31:52.098Z,103023.52
2018-12-14T06:34:18.237Z,103025.98
2018-12-14T06:36:44.389Z,103031.25
2018-12-14T06:39:10.533Z,103033.22
2018-12-14T06:41:36.828Z,103033.30
2018-12-14T06:44:02.997Z,103036.19
2018-12-14T06:46:30.102Z,103039.66
2018-12-14T06:48:56.235Z,103030.54
2018-12-14T06:51:22.379Z,103032.72
2018-12-14T06:53:48.515Z,103028.75
2018-12-14T06:56:14.639Z,103029.75
2018-12-14T06:58:40.793Z,103031.94
2018-12-14T07:01:06.957Z,103026.28
2018-12-14T07:03:33.215Z,103031.25
2018-12-14T07:05:59.347Z,103031.95
2018-12-14T07:08:25.497Z,103029.97
2018-12-14T07:10:51.795Z,103032.36
2018-12-14T07:13:21.811Z,103031.98
2018-12-14T07:15:46.123Z,103030.78
2018-12-14T07:18:12.301Z,103027.86
2018-12-14T07:20:38.679Z,103038.05
2018-12-14T07:23:04.824Z,103039.97
2018-12-14T07:25:30.952Z,103040.83
2018-12-14T07:27:57.223Z,103040.83
2018-12-14T07:30:23.378Z,103046.80
2018-12-14T07:32:49.686Z,103051.23
2018-12-14T07:35:15.843Z,103050.14
2018-12-14T07:37:41.985Z,103050.53
2018-12-14T07:40:08.143Z,103054.06
2018-12-14T07:42:34.283Z,103053.38
2018-12-14T07:45:00.422Z,103052.29
2018-12-14T07:47:26.578Z,103061.07
2018-12-14T07:49:52.731Z,103064.00
2018-12-14T07:52:18.894Z,103072.41
2018-12-14T07:54:45.056Z,103067.06
2018-12-14T07:57:11.201Z,103078.17
2018-12-14T07:59:37.346Z,103076.51
2018-12-14T08:02:03.489Z,103079.43
2018-12-14T08:04:29.875Z,103090.63
2018-12-14T08:06:56.639Z,103101.62
2018-12-14T08:09:22.766Z,103103.52
2018-12-14T08:11:48.896Z,103107.02
2018-12-14T08:14:15.049Z,103111.39
2018-12-14T08:16:41.176Z,103025.83
2018-12-14T08:19:07.306Z,103113.55
2018-12-14T08:21:33.440Z,103116.39
2018-12-14T08:23:59.587Z,103117.25
2018-12-14T08:26:25.716Z,103116.59
2018-12-14T08:28:51.847Z,103125.20
2018-12-14T08:31:17.978Z,103130.03
2018-12-14T08:33:44.115Z,103127.38
2018-12-14T08:36:10.240Z,103139.86
2018-12-14T08:38:36.382Z,103139.13
2018-12-14T08:41:02.542Z,103147.56
2018-12-14T08:43:28.663Z,103147.06
2018-12-14T08:45:54.780Z,103149.09
2018-12-14T08:48:21.073Z,103154.09
2018-12-14T08:50:47.373Z,103158.29
2018-12-14T08:53:13.752Z,103152.30
2018-12-14T08:55:39.911Z,103152.03
2018-12-14T08:58:06.069Z,103149.98
2018-12-14T09:00:32.220Z,103153.06
2018-12-14T09:02:58.349Z,103155.63
2018-12-14T09:05:24.526Z,103147.96
2018-12-14T09:07:50.641Z,103144.39
2018-12-14T09:10:16.795Z,103145.66
2018-12-14T09:12:42.952Z,103148.07
2018-12-14T09:15:09.110Z,103146.18
2018-12-14T09:17:35.248Z,103146.94
2018-12-14T09:20:01.654Z,103145.69
2018-12-14T09:22:27.890Z,103154.11
2018-12-14T09:24:54.067Z,103151.16
2018-12-14T09:27:20.215Z,103148.73
2018-12-14T09:29:46.346Z,103152.67
2018-12-14T09:32:12.494Z,103154.83
2018-12-14T09:34:39.225Z,103156.38
2018-12-14T09:37:05.375Z,103150.26
2018-12-14T09:39:31.509Z,103152.05
2018-12-14T09:41:57.643Z,103163.28
2018-12-14T09:44:23.765Z,103160.70
2018-12-14T09:46:49.901Z,103158.12
2018-12-14T09:49:16.055Z,103159.52
2018-12-14T09:51:42.213Z,103158.35
2018-12-14T09:54:08.331Z,103146.50
2018-12-14T09:56:34.462Z,103138.17
2018-12-14T09:59:00.596Z,103143.31
2018-12-14T10:01:26.729Z,103150.47
2018-12-14T10:03:53.096Z,103153.80
2018-12-14T10:06:19.227Z,103151.51
2018-12-14T10:08:45.378Z,103148.69
2018-12-14T10:11:11.547Z,103148.46
2018-12-14T10:13:37.712Z,103143.61
2018-12-14T10:16:04.025Z,103149.13
2018-12-14T10:18:30.311Z,103142.34
2018-12-14T10:20:56.454Z,103137.76
2018-12-14T10:23:22.603Z,103142.72
2018-12-14T10:25:48.761Z,103144.38
2018-12-14T10:28:14.916Z,103148.44
2018-12-14T10:30:41.039Z,103144.84
2018-12-14T10:33:07.196Z,103143.83
2018-12-14T10:35:33.369Z,103142.30
2018-12-14T10:37:59.556Z,103134.92
2018-12-14T10:40:25.726Z,103136.95
2018-12-14T10:42:51.866Z,103128.42
2018-12-14T10:45:18.151Z,103132.63
2018-12-14T10:47:44.288Z,103130.19
2018-12-14T10:50:11.168Z,103131.84
2018-12-14T10:52:37.297Z,103132.11
2018-12-14T10:55:04.797Z,103130.59
2018-12-14T10:57:32.235Z,103137.98
2018-12-14T10:59:58.427Z,103133.67
2018-12-14T11:02:24.673Z,103125.11
2018-12-14T11:04:50.813Z,103128.69
2018-12-14T11:07:16.951Z,103124.97
2018-12-14T11:09:43.105Z,103131.09
2018-12-14T11:12:09.274Z,103137.47
2018-12-14T11:14:35.415Z,103132.25
2018-12-14T11:17:01.563Z,103134.53
2018-12-14T11:19:27.743Z,103129.81
2018-12-14T11:21:53.867Z,103136.45
2018-12-14T11:24:20.015Z,103137.84
2018-12-14T11:26:46.133Z,103133.67
2018-12-14T11:29:12.283Z,103131.63
2018-12-14T11:31:38.430Z,103136.84
2018-12-14T11:34:04.580Z,103136.72
2018-12-14T11:36:30.867Z,103136.98
2018-12-14T11:38:57.009Z,103136.60
2018-12-14T11:41:23.200Z,103143.25
2018-12-14T11:43:49.318Z,103136.60
2018-12-14T11:46:15.476Z,103143.62
2018-12-14T11:48:41.631Z,103149.88
2018-12-14T11:51:09.142Z,103148.23
2018-12-14T11:53:35.297Z,103144.91
2018-12-14T11:56:01.476Z,103151.68
2018-12-14T11:58:27.617Z,103140.55
2018-12-14T12:00:53.790Z,103145.93
2018-12-14T12:03:19.933Z,103144.75
2018-12-14T12:05:46.098Z,103147.28
2018-12-14T12:08:12.811Z,103149.13
2018-12-14T12:10:38.964Z,103144.89
2018-12-14T12:13:05.129Z,103142.19
2018-12-14T12:15:31.286Z,103155.16
2018-12-14T12:17:57.433Z,103154.11
2018-12-14T12:20:23.568Z,103149.53
2018-12-14T12:22:49.721Z,103159.20
2018-12-14T12:25:15.873Z,103156.13
2018-12-14T12:27:42.074Z,103156.64
2018-12-14T12:30:09.231Z,103161.00
2018-12-14T12:32:35.392Z,103157.70
2018-12-14T12:35:01.673Z,103154.15
2018-12-14T12:37:27.905Z,103164.72
2018-12-14T12:39:54.065Z,103158.23
2018-12-14T12:42:20.223Z,103154.11
2018-12-14T12:44:46.365Z,103147.52
2018-12-14T12:47:12.522Z,103152.88
2018-12-14T12:49:38.807Z,103152.02
2018-12-14T12:52:05.034Z,103151.61
2018-12-14T12:54:31.211Z,103150.22
2018-12-14T12:56:57.360Z,103153.73
2018-12-14T12:59:24.671Z,103150.91
2018-12-14T13:01:51.676Z,103150.70
2018-12-14T13:04:17.831Z,103150.47
2018-12-14T13:06:44.017Z,103153.66
2018-12-14T13:09:10.189Z,103150.69
2018-12-14T13:11:36.336Z,103161.08
2018-12-14T13:14:02.558Z,103163.62
2018-12-14T13:16:28.686Z,103165.84
2018-12-14T13:18:54.854Z,103163.01
2018-12-14T13:21:21.021Z,103162.78
2018-12-14T13:23:47.206Z,103167.69
2018-12-14T13:26:13.932Z,103171.77
2018-12-14T13:28:40.251Z,103172.94
2018-12-14T13:31:06.417Z,103169.40
2018-12-14T13:33:32.805Z,103169.20
2018-12-14T13:35:58.980Z,103169.85
2018-12-14T13:38:25.118Z,103167.66
2018-12-14T13:40:51.267Z,103172.37
2018-12-14T13:43:17.538Z,103176.06
2018-12-14T13:45:43.719Z,103172.22
2018-12-14T13:48:09.931Z,103171.57
2018-12-14T13:50:36.199Z,103175.67
2018-12-14T13:53:02.401Z,103179.53
2018-12-14T13:55:28.564Z,103181.52
2018-12-14T13:57:54.739Z,103179.75
2018-12-14T14:00:21.648Z,103174.88
2018-12-14T14:02:47.952Z,103181.15
2018-12-14T14:05:14.119Z,103182.42
2018-12-14T14:07:40.312Z,103177.86
2018-12-14T14:10:06.603Z,103175.77
2018-12-14T14:12:32.767Z,103178.22
2018-12-14T14:14:59.158Z,103180.95
2018-12-14T14:17:25.301Z,103171.89
2018-12-14T14:19:52.364Z,103170.13
2018-12-14T14:22:18.630Z,103176.43
2018-12-14T14:24:44.772Z,103167.77
2018-12-14T14:27:10.935Z,103173.05
2018-12-14T14:29:37.109Z,103177.42
2018-12-14T14:32:03.265Z,103183.67
2018-12-14T14:34:29.422Z,103178.98
2018-12-14T14:36:55.634Z,103181.31
2018-12-14T14:39:21.788Z,103184.88
2018-12-14T14:41:47.936Z,103176.25
2018-12-14T14:44:14.948Z,103182.98
2018-12-14T14:46:41.106Z,103182.61
2018-12-14T14:49:07.295Z,103186.90
2018-12-14T14:51:33.719Z,103182.22
2018-12-14T14:53:59.861Z,103184.76
2018-12-14T14:56:26.060Z,103189.76
2018-12-14T14:58:52.254Z,103193.56
2018-12-14T15:01:18.463Z,103188.97
2018-12-14T15:03:44.614Z,103180.00
2018-12-14T15:06:10.783Z,103181.73
2018-12-14T15:08:36.944Z,103180.59
2018-12-14T15:11:03.140Z,103174.30
2018-12-14T15:13:29.350Z,103168.77
2018-12-14T15:15:55.534Z,103170.00
2018-12-14T15:18:21.689Z,103183.75
2018-12-14T15:20:47.857Z,103186.91
2018-12-14T15:23:14.023Z,103186.20
2018-12-14T15:25:40.204Z,103189.30
2018-12-14T15:28:06.348Z,103188.72
2018-12-14T15:30:32.517Z,103194.09
2018-12-14T15:32:58.662Z,103192.63
2018-12-14T15:35:24.960Z,103197.80
2018-12-14T15:37:51.243Z,103199.77
2018-12-14T15:40:17.371Z,103195.70
2018-12-14T15:42:43.506Z,103196.89
2018-12-14T15:45:13.135Z,103198.33
2018-12-14T15:47:37.848Z,103201.92
2018-12-14T15:50:04.263Z,103210.31
2018-12-14T15:52:30.515Z,103209.20
2018-12-14T15:54:56.687Z,103212.71
2018-12-14T15:57:22.827Z,103212.63
2018-12-14T15:59:48.992Z,103210.55
2018-12-14T16:02:15.165Z,103215.24
2018-12-14T16:04:41.303Z,103212.55
2018-12-14T16:07:07.605Z,103216.06
2018-12-14T16:09:33.768Z,103210.83
2018-12-14T16:11:59.971Z,103203.25
2018-12-14T16:14:26.316Z,103210.95
2018-12-14T16:16:52.509Z,103214.00
2018-12-14T16:19:18.708Z,103214.95
2018-12-14T16:21:45.004Z,103218.95
2018-12-14T16:24:11.195Z,103218.59
2018-12-14T16:26:37.395Z,103222.43
2018-12-14T16:29:03.535Z,103229.83
2018-12-14T16:31:29.949Z,103225.17
2018-12-14T16:33:56.142Z,103221.36
2018-12-14T16:36:22.299Z,103220.70
2018-12-14T16:38:48.455Z,103216.27
2018-12-14T16:41:14.614Z,103224.29
2018-12-14T16:43:40.776Z,103220.70
2018-12-14T16:46:06.943Z,103234.52
2018-12-14T16:48:33.130Z,103227.52
2018-12-14T16:50:59.307Z,103228.34
2018-12-14T16:53:25.513Z,103228.78
2018-12-14T16:55:51.654Z,103227.66
2018-12-14T16:58:17.804Z,103226.09
2018-12-14T17:00:43.991Z,103223.26
2018-12-14T17:03:10.151Z,103223.02
2018-12-14T17:05:36.317Z,103229.98
2018-12-14T17:08:02.628Z,103221.16
2018-12-14T17:10:28.759Z,103213.30
2018-12-14T17:12:54.932Z,103212.93
2018-12-14T17:15:21.104Z,103213.63
2018-12-14T17:17:47.309Z,103206.88
2018-12-14T17:20:13.476Z,103203.98
2018-12-14T17:22:39.675Z,103205.38
2018-12-14T17:25:06.256Z,103204.41
2018-12-14T17:27:32.423Z,103197.31
2018-12-14T17:29:58.591Z,103197.19
2018-12-14T17:32:24.732Z,103208.02
2018-12-14T17:34:50.888Z,103209.05
2018-12-14T17:37:17.028Z,103209.34
2018-12-14T17:39:43.232Z,103212.86
2018-12-14T17:42:09.419Z,103208.77
2018-12-14T17:44:35.592Z,103215.63
2018-12-14T17:47:01.991Z,103214.89
2018-12-14T17:49:28.123Z,103217.73
2018-12-14T17:51:54.314Z,103211.83
2018-12-14T17:54:20.443Z,103212.44
2018-12-14T17:56:46.604Z,103204.35
2018-12-14T17:59:12.754Z,103209.48
2018-12-14T18:01:39.168Z,103211.80
2018-12-14T18:04:05.328Z,103208.97
2018-12-14T18:06:31.493Z,103205.03
2018-12-14T18:08:57.657Z,103199.20
2018-12-14T18:11:23.830Z,103193.32
2018-12-14T18:13:50.035Z,103199.36
2018-12-14T18:16:16.651Z,103192.92
2018-12-14T18:18:42.894Z,103195.08
2018-12-14T18:21:09.064Z,103189.05
2018-12-14T18:23:35.195Z,103188.04
2018-12-14T18:26:01.347Z,103184.97
2018-12-14T18:28:27.492Z,103175.23
2018-12-14T18:30:53.787Z,103178.42
2018-12-14T18:33:19.945Z,103182.95
2018-12-14T18:35:46.143Z,103190.75
2018-12-14T18:38:12.298Z,103188.67
2018-12-14T18:40:38.489Z,103193.48
2018-12-14T18:43:04.659Z,103200.21
2018-12-14T18:45:30.819Z,103194.97
2018-12-14T18:47:56.983Z,103185.75
2018-12-14T18:50:23.151Z,103185.55
2018-12-14T18:52:49.330Z,103188.15
2018-12-14T18:55:15.488Z,103193.00
2018-12-14T18:57:41.660Z,103192.77
2018-12-14T19:00:08.464Z,103192.28
2018-12-14T19:02:34.635Z,103190.27
2018-12-14T19:05:00.811Z,103183.84
2018-12-14T19:07:26.984Z,103190.80
2018-12-14T19:09:53.387Z,103184.88
2018-12-14T19:12:20.209Z,103180.19
2018-12-14T19:14:46.358Z,103180.86
2018-12-14T19:17:12.504Z,103180.10
2018-12-14T19:19:38.699Z,103163.75
2018-12-14T19:22:04.836Z,103191.38
2018-12-14T19:24:30.999Z,103185.01
2018-12-14T19:26:57.198Z,103191.16
2018-12-14T19:29:23.334Z,103190.86
2018-12-14T19:31:49.499Z,103180.41
2018-12-14T19:34:15.647Z,103183.84
2018-12-14T19:36:41.837Z,103185.25
2018-12-14T19:39:08.244Z,103177.31
2018-12-14T19:41:34.393Z,103176.38
2018-12-14T19:44:00.535Z,103173.44
2018-12-14T19:46:26.712Z,103172.16
2018-12-14T19:48:52.855Z,103177.62
2018-12-14T19:51:19.002Z,103174.39
2018-12-14T19:53:45.147Z,103180.16
2018-12-14T19:56:11.354Z,103175.31
2018-12-14T19:58:37.526Z,103168.57
2018-12-14T20:01:03.677Z,103166.01
2018-12-14T20:03:29.867Z,103171.64
2018-12-14T20:05:56.015Z,103174.06
2018-12-14T20:08:22.179Z,103169.71
2018-12-14T20:10:48.642Z,103168.92
2018-12-14T20:13:15.033Z,103175.97
2018-12-14T20:15:41.179Z,103183.48
2018-12-14T20:18:07.353Z,103184.13
2018-12-14T20:20:34.552Z,103187.18
2018-12-14T20:23:00.707Z,103180.51
2018-12-14T20:25:27.627Z,103182.92
2018-12-14T20:27:53.783Z,103181.52
2018-12-14T20:30:20.168Z,103179.95
2018-12-14T20:32:46.326Z,103181.09
2018-12-14T20:35:12.805Z,103183.48
2018-12-14T20:37:38.964Z,103181.02
2018-12-14T20:40:05.465Z,103189.27
2018-12-14T20:42:31.658Z,103188.37
2018-12-14T20:44:57.801Z,103187.05
2018-12-14T20:47:23.935Z,103188.18
2018-12-14T20:49:50.116Z,103184.72
2018-12-14T20:52:16.331Z,103185.05
2018-12-14T20:54:42.475Z,103180.16
2018-12-14T20:57:08.627Z,103180.68
2018-12-14T20:59:34.749Z,103177.35
2018-12-14T21:02:00.890Z,103188.58
2018-12-14T21:04:27.054Z,103183.31
2018-12-14T21:06:53.223Z,103189.33
2018-12-14T21:09:19.395Z,103179.87
2018-12-14T21:11:45.546Z,103179.00
2018-12-14T21:14:11.688Z,103176.07
2018-12-14T21:16:38.429Z,103177.01
2018-12-14T21:19:04.604Z,103171.72
2018-12-14T21:21:30.751Z,103168.64
2018-12-14T21:23:56.912Z,103175.81
2018-12-14T21:26:23.067Z,103180.84
2018-12-14T21:28:49.219Z,103184.92
2018-12-14T21:31:15.351Z,103179.42
2018-12-14T21:33:41.511Z,103184.38
2018-12-14T21:36:07.627Z,103183.20
2018-12-14T21:38:33.789Z,103182.28
2018-12-14T21:40:59.921Z,103184.25
2018-12-14T21:43:26.979Z,103181.00
2018-12-14T21:45:53.101Z,103180.56
2018-12-14T21:48:19.257Z,103165.31
2018-12-14T21:50:45.407Z,103162.69
2018-12-14T21:53:14.611Z,103168.08
2018-12-14T21:55:39.766Z,103167.98
2018-12-14T21:58:05.923Z,103174.84
2018-12-14T22:00:32.063Z,103168.11
2018-12-14T22:02:58.211Z,103175.19
2018-12-14T22:05:24.366Z,103169.22
2018-12-14T22:07:50.503Z,103164.27
2018-12-14T22:10:16.654Z,103156.41
2018-12-14T22:12:42.776Z,103158.13
2018-12-14T22:15:09.061Z,103159.16
2018-12-14T22:17:35.182Z,103160.36
2018-12-14T22:20:01.384Z,103167.73
2018-12-14T22:22:27.544Z,103172.79
2018-12-14T22:24:53.663Z,103169.71
2018-12-14T22:27:19.797Z,103178.36
2018-12-14T22:29:45.958Z,103172.88
2018-12-14T22:32:12.119Z,103176.44
2018-12-14T22:34:38.240Z,103172.32
2018-12-14T22:37:04.358Z,103169.24
2018-12-14T22:39:30.876Z,103161.48
2018-12-14T22:41:57.574Z,103161.78
2018-12-14T22:44:23.727Z,103162.89
2018-12-14T22:46:49.867Z,103157.37
2018-12-14T22:49:16.023Z,103156.72
2018-12-14T22:51:42.154Z,103152.90
2018-12-14T22:54:08.342Z,103152.36
2018-12-14T22:56:34.487Z,103156.03
2018-12-14T22:59:00.615Z,103151.11
2018-12-14T23:01:26.912Z,103157.86
2018-12-14T23:03:53.048Z,103153.52
2018-12-14T23:06:19.187Z,103157.58
2018-12-14T23:08:45.310Z,103160.69
2018-12-14T23:11:11.460Z,103161.27
2018-12-14T23:13:37.597Z,103166.42
2018-12-14T23:16:03.723Z,103156.55
2018-12-14T23:18:29.840Z,103163.59
2018-12-14T23:20:55.980Z,103162.64
2018-12-14T23:23:22.151Z,103164.63
2018-12-14T23:25:48.617Z,103160.27
2018-12-14T23:28:15.870Z,103157.89
2018-12-14T23:30:42.020Z,103158.02
2018-12-14T23:33:08.168Z,103158.02
2018-12-14T23:35:34.337Z,103159.63
2018-12-14T23:38:00.500Z,103155.16
2018-12-14T23:40:26.651Z,103164.78
2018-12-14T23:42:52.810Z,103160.22
2018-12-14T23:45:18.919Z,103155.28
2018-12-14T23:47:45.091Z,103161.13
2018-12-14T23:50:11.251Z,103160.43
2018-12-14T23:52:37.420Z,103155.87
2018-12-14T23:55:03.714Z,103158.80
2018-12-14T23:57:29.866Z,103157.83
2018-12-14T23:59:56.003Z,103158.41
